createdAt,value
2022-10-11T00:01:01.349Z,101768.40
2022-10-11T00:03:36.320Z,101769.60
2022-10-11T00:06:06.298Z,101778.20
2022-10-11T00:08:34.923Z,101780.80
2022-10-11T00:11:06.850Z,101777.20
2022-10-11T00:13:35.907Z,101773.40
2022-10-11T00:16:11.585Z,101781.40
2022-10-11T00:18:40.057Z,101782.00
2022-10-11T00:21:12.131Z,101781.80
2022-10-11T00:23:41.340Z,101782.40
2022-10-11T00:26:10.868Z,101775.80
2022-10-11T00:28:39.986Z,101773.40
2022-10-11T00:31:16.318Z,101781.80
2022-10-11T00:33:44.215Z,101789.20
2022-10-11T00:36:14.747Z,101793.60
2022-10-11T00:38:46.147Z,101793.00
2022-10-11T00:41:15.623Z,101792.80
2022-10-11T00:43:44.923Z,101793.40
2022-10-11T00:46:18.716Z,101792.20
2022-10-11T00:48:53.762Z,101804.20
2022-10-11T00:54:37.206Z,101800.40
2022-10-11T00:57:10.838Z,101806.00
2022-10-11T00:59:48.198Z,101811.20
2022-10-11T01:02:18.327Z,101810.60
2022-10-11T01:04:46.815Z,101809.80
2022-10-11T01:07:15.189Z,101809.00
2022-10-11T01:09:42.779Z,101811.80
2022-10-11T01:12:23.406Z,101808.40
2022-10-11T01:15:15.138Z,101809.00
2022-10-11T01:17:59.382Z,101812.00
2022-10-11T01:20:35.517Z,101806.20
2022-10-11T01:23:53.315Z,101804.00
2022-10-11T01:26:42.203Z,101811.00
2022-10-11T01:30:04.299Z,101806.60
2022-10-11T01:32:47.521Z,101799.40
2022-10-11T01:35:55.451Z,101803.40
2022-10-11T01:38:42.814Z,101799.20
2022-10-11T01:41:21.662Z,101792.40
2022-10-11T01:43:53.774Z,101792.60
2022-10-11T01:46:22.072Z,101795.40
2022-10-11T01:49:00.357Z,101797.40
2022-10-11T01:51:35.845Z,101785.80
2022-10-11T01:58:05.131Z,101782.80
2022-10-11T02:00:55.253Z,101779.80
2022-10-11T02:03:57.174Z,101768.20
2022-10-11T02:06:46.265Z,101770.60
2022-10-11T02:09:34.023Z,101777.80
2022-10-11T02:12:14.663Z,101773.20
2022-10-11T02:14:49.473Z,101777.60
2022-10-11T02:17:24.600Z,101776.20
2022-10-11T02:19:58.394Z,101770.40
2022-10-11T02:22:34.385Z,101766.20
2022-10-11T02:25:08.986Z,101772.20
2022-10-11T02:27:40.601Z,101776.00
2022-10-11T02:30:10.927Z,101774.60
2022-10-11T02:32:43.442Z,101776.60
2022-10-11T02:35:12.651Z,101776.80
2022-10-11T02:38:11.131Z,101771.00
2022-10-11T02:40:47.836Z,101771.00
2022-10-11T02:43:28.268Z,101774.20
2022-10-11T02:46:01.431Z,101775.00
2022-10-11T02:48:31.963Z,101763.60
2022-10-11T02:50:59.551Z,101767.20
2022-10-11T02:53:27.255Z,101770.80
2022-10-11T02:55:56.019Z,101767.60
2022-10-11T02:58:25.458Z,101770.80
2022-10-11T03:00:53.184Z,101766.80
2022-10-11T03:03:20.818Z,101768.40
2022-10-11T03:05:49.077Z,101767.20
2022-10-11T03:08:17.419Z,101766.80
2022-10-11T03:10:45.540Z,101771.80
2022-10-11T03:13:17.906Z,101768.40
2022-10-11T03:16:02.400Z,101763.60
2022-10-11T03:18:31.616Z,101768.20
2022-10-11T03:20:59.662Z,101761.40
2022-10-11T03:23:27.540Z,101762.00
2022-10-11T03:25:55.496Z,101765.80
2022-10-11T03:28:23.236Z,101764.80
2022-10-11T03:30:51.895Z,101761.80
2022-10-11T03:33:20.123Z,101754.60
2022-10-11T03:35:48.935Z,101753.40
2022-10-11T03:38:20.982Z,101759.00
2022-10-11T03:40:49.339Z,101763.80
2022-10-11T03:43:18.080Z,101760.40
2022-10-11T03:45:45.941Z,101759.20
2022-10-11T03:48:13.500Z,101756.40
2022-10-11T03:50:41.051Z,101760.20
2022-10-11T03:53:09.099Z,101757.20
2022-10-11T03:55:40.291Z,101763.80
2022-10-11T03:58:08.362Z,101773.80
2022-10-11T04:00:36.760Z,101775.00
2022-10-11T04:03:04.461Z,101772.80
2022-10-11T04:05:32.153Z,101775.80
2022-10-11T04:07:59.745Z,101775.20
2022-10-11T04:10:27.482Z,101773.00
2022-10-11T04:12:55.025Z,101773.40
2022-10-11T04:15:23.144Z,101778.60
2022-10-11T04:17:50.809Z,101778.40
2022-10-11T04:20:18.610Z,101779.80
2022-10-11T04:22:46.233Z,101775.40
2022-10-11T04:25:14.095Z,101781.40
2022-10-11T04:27:42.063Z,101788.20
2022-10-11T04:30:11.226Z,101788.60
2022-10-11T04:32:38.932Z,101786.80
2022-10-11T04:35:06.909Z,101784.20
2022-10-11T04:37:34.726Z,101785.60
2022-10-11T04:40:03.362Z,101794.20
2022-10-11T04:42:30.930Z,101790.20
2022-10-11T04:44:58.617Z,101791.00
2022-10-11T04:47:26.545Z,101794.60
2022-10-11T04:49:54.196Z,101792.60
2022-10-11T04:52:25.564Z,101795.20
2022-10-11T04:54:53.720Z,101794.40
2022-10-11T04:57:21.338Z,101797.20
2022-10-11T04:59:50.355Z,101798.80
2022-10-11T05:02:18.360Z,101798.00
2022-10-11T05:04:46.203Z,101808.40
2022-10-11T05:07:13.960Z,101802.40
2022-10-11T05:09:41.608Z,101798.80
2022-10-11T05:12:10.010Z,101803.20
2022-10-11T05:14:37.639Z,101804.60
2022-10-11T05:17:05.856Z,101810.00
2022-10-11T05:19:33.524Z,101813.00
2022-10-11T05:22:01.096Z,101813.40
2022-10-11T05:24:28.751Z,101816.40
2022-10-11T05:27:00.890Z,101818.60
2022-10-11T05:29:30.873Z,101815.60
2022-10-11T05:31:58.547Z,101807.00
2022-10-11T05:34:26.166Z,101811.80
2022-10-11T05:36:53.939Z,101816.80
2022-10-11T05:39:21.578Z,101816.60
2022-10-11T05:41:49.191Z,101816.80
2022-10-11T05:44:16.773Z,101819.00
2022-10-11T05:46:44.415Z,101820.00
2022-10-11T05:49:12.224Z,101822.60
2022-10-11T05:51:40.338Z,101827.00
2022-10-11T05:54:07.926Z,101826.00
2022-10-11T05:56:35.621Z,101827.40
2022-10-11T05:59:05.013Z,101822.40
2022-10-11T06:01:32.788Z,101829.40
2022-10-11T06:04:00.486Z,101831.40
2022-10-11T06:06:28.358Z,101829.40
2022-10-11T06:08:55.996Z,101829.40
2022-10-11T06:11:27.292Z,101831.00
2022-10-11T06:13:58.165Z,101830.60
2022-10-11T06:16:26.829Z,101828.80
2022-10-11T06:18:55.767Z,101831.00
2022-10-11T06:21:24.726Z,101830.20
2022-10-11T06:23:58.260Z,101824.40
2022-10-11T06:26:29.909Z,101835.20
2022-10-11T06:28:59.019Z,101834.80
2022-10-11T06:31:27.134Z,101832.00
2022-10-11T06:33:55.329Z,101834.80
2022-10-11T06:36:22.931Z,101836.00
2022-10-11T06:38:55.114Z,101834.20
2022-10-11T06:41:26.968Z,101839.60
2022-10-11T06:43:55.280Z,101837.60
2022-10-11T06:46:26.607Z,101838.40
2022-10-11T06:48:56.312Z,101843.00
2022-10-11T06:51:25.221Z,101847.60
2022-10-11T06:53:56.827Z,101855.40
2022-10-11T06:56:26.214Z,101853.80
2022-10-11T06:58:55.515Z,101859.00
2022-10-11T07:01:24.111Z,101863.60
2022-10-11T07:03:55.825Z,101855.80
2022-10-11T07:06:27.632Z,101855.40
2022-10-11T07:08:55.769Z,101868.20
2022-10-11T07:11:27.798Z,101868.80
2022-10-11T07:13:59.419Z,101862.20
2022-10-11T07:16:28.558Z,101874.00
2022-10-11T07:19:01.516Z,101868.20
2022-10-11T07:21:31.344Z,101878.40
2022-10-11T07:24:00.273Z,101877.60
2022-10-11T07:26:33.869Z,101877.40
2022-10-11T07:29:09.784Z,101879.40
2022-10-11T07:31:41.126Z,101877.20
2022-10-11T07:34:10.598Z,101882.00
2022-10-11T07:36:38.405Z,101880.40
2022-10-11T07:39:08.297Z,101881.20
2022-10-11T07:41:38.879Z,101884.40
2022-10-11T07:44:09.560Z,101886.80
2022-10-11T07:46:37.266Z,101891.60
2022-10-11T07:49:04.992Z,101893.80
2022-10-11T07:51:33.377Z,101894.40
2022-10-11T07:54:06.148Z,101893.20
2022-10-11T07:56:35.077Z,101896.80
2022-10-11T07:59:05.782Z,101893.80
2022-10-11T08:01:33.930Z,101899.00
2022-10-11T08:04:01.661Z,101903.60
2022-10-11T08:06:32.556Z,101896.60
2022-10-11T08:09:01.434Z,101895.40
2022-10-11T08:11:33.976Z,101896.00
2022-10-11T08:14:06.246Z,101901.20
2022-10-11T08:16:35.919Z,101898.00
2022-10-11T08:19:03.946Z,101898.60
2022-10-11T08:21:32.699Z,101895.80
2022-10-11T08:24:03.633Z,101896.60
2022-10-11T08:26:32.425Z,101891.20
2022-10-11T08:29:05.086Z,101889.20
2022-10-11T08:31:35.218Z,101888.80
2022-10-11T08:34:03.895Z,101886.40
2022-10-11T08:36:31.780Z,101892.40
2022-10-11T08:38:59.409Z,101886.60
2022-10-11T08:41:47.968Z,101884.80
2022-10-11T08:45:10.182Z,101887.80
2022-10-11T08:47:39.995Z,101892.20
2022-10-11T08:50:20.370Z,101894.40
2022-10-11T08:52:56.568Z,101892.80
2022-10-11T08:55:39.978Z,101887.80
2022-10-11T08:58:16.286Z,101889.60
2022-10-11T09:00:48.066Z,101894.40
2022-10-11T09:03:40.337Z,101883.80
2022-10-11T09:06:18.563Z,101881.40
2022-10-11T09:09:10.866Z,101884.40
2022-10-11T09:12:08.989Z,101885.40
2022-10-11T09:14:58.175Z,101887.00
2022-10-11T09:18:02.929Z,101882.00
2022-10-11T09:20:35.401Z,101879.20
2022-10-11T09:23:20.187Z,101881.40
2022-10-11T09:25:58.949Z,101879.60
2022-10-11T09:29:06.684Z,101879.40
2022-10-11T09:31:34.625Z,101886.00
2022-10-11T09:34:15.617Z,101889.80
2022-10-11T09:37:24.235Z,101884.00
2022-10-11T09:40:44.752Z,101879.00
2022-10-11T09:43:12.684Z,101880.40
2022-10-11T09:45:49.219Z,101879.40
2022-10-11T09:48:41.361Z,101883.60
2022-10-11T09:51:19.569Z,101884.20
2022-10-11T09:54:01.164Z,101889.00
2022-10-11T09:56:30.905Z,101890.60
2022-10-11T09:59:30.239Z,101890.40
2022-10-11T10:02:13.368Z,101895.60
2022-10-11T10:04:53.519Z,101896.00
2022-10-11T10:07:22.373Z,101901.20
2022-10-11T10:09:51.174Z,101899.80
2022-10-11T10:12:26.006Z,101903.00
2022-10-11T10:15:17.590Z,101902.60
2022-10-11T10:17:51.322Z,101898.60
2022-10-11T10:20:33.231Z,101895.00
2022-10-11T10:23:09.959Z,101893.20
2022-10-11T10:25:43.222Z,101882.20
2022-10-11T10:28:27.466Z,101882.60
2022-10-11T10:30:58.850Z,101882.60
2022-10-11T10:33:30.926Z,101879.60
2022-10-11T10:36:07.780Z,101872.60
2022-10-11T10:38:52.172Z,101871.40
2022-10-11T10:41:20.360Z,101868.60
2022-10-11T10:43:54.969Z,101872.00
2022-10-11T10:46:37.765Z,101870.60
2022-10-11T10:52:20.921Z,101859.60
2022-10-11T10:55:26.467Z,101864.80
2022-10-11T10:58:25.613Z,101855.00
2022-10-11T11:01:23.216Z,101851.60
2022-10-11T11:04:33.526Z,101851.40
2022-10-11T11:07:27.040Z,101847.20
2022-10-11T11:10:06.996Z,101849.00
2022-10-11T11:13:01.192Z,101853.00
2022-10-11T11:15:45.279Z,101843.40
2022-10-11T11:18:28.878Z,101846.60
2022-10-11T11:21:12.769Z,101842.40
2022-10-11T11:24:01.590Z,101832.60
2022-10-11T11:26:44.562Z,101833.40
2022-10-11T11:30:04.105Z,101837.60
2022-10-11T11:33:33.309Z,101835.60
2022-10-11T11:36:13.423Z,101830.80
2022-10-11T11:38:58.321Z,101836.60
2022-10-11T11:41:42.823Z,101831.60
2022-10-11T11:44:27.462Z,101819.20
2022-10-11T11:47:19.647Z,101819.00
2022-10-11T11:50:23.079Z,101811.80
2022-10-11T11:53:07.610Z,101810.20
2022-10-11T11:55:52.699Z,101809.80
2022-10-11T11:58:55.411Z,101807.20
2022-10-11T12:01:46.267Z,101807.00
2022-10-11T12:04:42.173Z,101804.40
2022-10-11T12:07:16.676Z,101803.00
2022-10-11T12:09:54.298Z,101799.40
2022-10-11T12:12:36.409Z,101803.00
2022-10-11T12:15:22.698Z,101802.20
2022-10-11T12:17:53.388Z,101802.40
2022-10-11T12:20:29.044Z,101796.20
2022-10-11T12:23:05.228Z,101793.40
2022-10-11T12:25:39.666Z,101797.60
2022-10-11T12:28:41.738Z,101799.60
2022-10-11T12:31:30.385Z,101793.20
2022-10-11T12:34:01.016Z,101793.40
2022-10-11T12:36:29.696Z,101785.00
2022-10-11T12:39:22.772Z,101785.60
2022-10-11T12:42:06.965Z,101785.20
2022-10-11T12:44:34.946Z,101783.00
2022-10-11T12:47:42.983Z,101783.40
2022-10-11T12:50:19.766Z,101783.80
2022-10-11T12:53:27.855Z,101782.40
2022-10-11T12:56:39.733Z,101777.00
2022-10-11T12:59:17.315Z,101773.00
2022-10-11T13:01:53.356Z,101770.40
2022-10-11T13:04:27.135Z,101763.60
2022-10-11T13:07:06.566Z,101766.00
2022-10-11T13:09:44.141Z,101761.40
2022-10-11T13:12:19.473Z,101760.80
2022-10-11T13:15:03.775Z,101755.80
2022-10-11T13:17:38.646Z,101742.20
2022-10-11T13:20:20.540Z,101754.20
2022-10-11T13:22:53.292Z,101744.00
2022-10-11T13:25:36.258Z,101744.20
2022-10-11T13:28:08.887Z,101749.00
2022-10-11T13:30:42.306Z,101737.40
2022-10-11T13:33:26.727Z,101740.20
2022-10-11T13:35:54.406Z,101734.00
2022-10-11T13:38:34.196Z,101725.40
2022-10-11T13:41:07.735Z,101721.20
2022-10-11T13:43:37.099Z,101726.40
2022-10-11T13:46:05.685Z,101727.40
2022-10-11T13:48:40.965Z,101721.40
2022-10-11T13:51:33.464Z,101720.40
2022-10-11T13:54:13.594Z,101715.20
2022-10-11T13:56:49.591Z,101715.60
2022-10-11T13:59:28.099Z,101720.80
2022-10-11T14:02:01.855Z,101712.40
2022-10-11T14:04:41.109Z,101706.00
2022-10-11T14:07:41.068Z,101695.80
2022-10-11T14:10:21.326Z,101694.60
2022-10-11T14:13:04.071Z,101691.20
2022-10-11T14:15:37.395Z,101689.40
2022-10-11T14:19:10.747Z,101684.40
2022-10-11T14:21:47.433Z,101680.00
2022-10-11T14:24:17.754Z,101684.00
2022-10-11T14:26:54.833Z,101681.80
2022-10-11T14:29:36.031Z,101681.60
2022-10-11T14:32:14.437Z,101678.80
2022-10-11T14:34:46.091Z,101678.40
2022-10-11T14:37:16.885Z,101670.60
2022-10-11T14:39:47.602Z,101668.00
2022-10-11T14:42:15.638Z,101661.60
2022-10-11T14:44:43.696Z,101664.20
2022-10-11T14:47:17.137Z,101667.60
2022-10-11T14:49:44.966Z,101663.20
2022-10-11T14:52:13.702Z,101663.80
2022-10-11T14:54:41.495Z,101660.60
2022-10-11T14:57:12.692Z,101661.40
2022-10-11T14:59:40.618Z,101656.00
2022-10-11T15:02:11.687Z,101655.60
2022-10-11T15:04:39.373Z,101648.80
2022-10-11T15:07:07.193Z,101649.80
2022-10-11T15:09:34.945Z,101644.00
2022-10-11T15:12:02.544Z,101638.00
2022-10-11T15:14:30.166Z,101637.00
2022-10-11T15:16:57.752Z,101633.00
2022-10-11T15:19:25.654Z,101628.80
2022-10-11T15:21:53.735Z,101625.00
2022-10-11T15:24:21.417Z,101631.80
2022-10-11T15:26:49.741Z,101628.00
2022-10-11T15:29:17.965Z,101631.60
2022-10-11T15:31:46.228Z,101626.40
2022-10-11T15:34:14.236Z,101623.20
2022-10-11T15:36:42.647Z,101633.40
2022-10-11T15:39:37.157Z,101626.40
2022-10-11T15:42:05.218Z,101618.60
2022-10-11T15:44:32.803Z,101620.00
2022-10-11T15:47:00.433Z,101621.60
2022-10-11T15:49:28.098Z,101624.80
2022-10-11T15:51:55.678Z,101621.40
2022-10-11T15:54:23.358Z,101617.00
2022-10-11T15:56:50.997Z,101619.20
2022-10-11T15:59:18.644Z,101617.80
2022-10-11T16:01:46.933Z,101607.40
2022-10-11T16:04:14.624Z,101607.00
2022-10-11T16:06:42.249Z,101606.20
2022-10-11T16:09:09.915Z,101600.80
2022-10-11T16:11:37.567Z,101604.60
2022-10-11T16:14:05.362Z,101604.60
2022-10-11T16:16:33.008Z,101611.60
2022-10-11T16:19:00.567Z,101616.20
2022-10-11T16:21:28.230Z,101625.00
2022-10-11T16:23:55.952Z,101628.20
2022-10-11T16:26:23.690Z,101626.80
2022-10-11T16:28:51.364Z,101615.80
2022-10-11T16:31:20.961Z,101618.20
2022-10-11T16:33:50.427Z,101614.00
2022-10-11T16:36:32.107Z,101614.00
2022-10-11T16:39:02.223Z,101618.20
2022-10-11T16:41:29.835Z,101612.80
2022-10-11T16:43:57.547Z,101613.40
2022-10-11T16:46:25.429Z,101612.20
2022-10-11T16:48:58.417Z,101614.00
2022-10-11T16:51:26.229Z,101620.40
2022-10-11T16:53:53.824Z,101618.00
2022-10-11T16:56:24.161Z,101616.20
2022-10-11T16:58:54.093Z,101616.40
2022-10-11T17:01:22.583Z,101613.80
2022-10-11T17:03:51.368Z,101621.80
2022-10-11T17:06:20.295Z,101626.40
2022-10-11T17:08:47.974Z,101629.00
2022-10-11T17:11:21.592Z,101631.00
2022-10-11T17:13:53.432Z,101625.00
2022-10-11T17:16:22.614Z,101621.80
2022-10-11T17:18:50.590Z,101625.00
2022-10-11T17:21:21.317Z,101630.00
2022-10-11T17:23:49.414Z,101635.40
2022-10-11T17:26:24.840Z,101626.60
2022-10-11T17:28:57.672Z,101628.00
2022-10-11T17:31:26.827Z,101623.80
2022-10-11T17:33:57.286Z,101629.00
2022-10-11T17:36:35.786Z,101620.00
2022-10-11T17:39:08.789Z,101626.20
2022-10-11T17:41:37.143Z,101621.00
2022-10-11T17:44:05.086Z,101618.20
2022-10-11T17:46:33.490Z,101613.20
2022-10-11T17:49:04.934Z,101618.40
2022-10-11T17:51:35.630Z,101618.40
2022-10-11T17:54:04.459Z,101618.00
2022-10-11T17:56:37.728Z,101614.40
2022-10-11T17:59:07.364Z,101609.80
2022-10-11T18:01:35.759Z,101607.60
2022-10-11T18:04:05.936Z,101605.80
2022-10-11T18:06:39.531Z,101605.00
2022-10-11T18:09:07.367Z,101607.20
2022-10-11T18:11:35.051Z,101607.40
2022-10-11T18:14:04.459Z,101608.60
2022-10-11T18:16:32.579Z,101599.60
2022-10-11T18:19:03.783Z,101604.80
2022-10-11T18:21:34.693Z,101606.80
2022-10-11T18:24:07.638Z,101598.20
2022-10-11T18:26:35.328Z,101602.00
2022-10-11T18:29:04.959Z,101609.40
2022-10-11T18:31:35.087Z,101616.00
2022-10-11T18:34:05.511Z,101613.60
2022-10-11T18:36:33.336Z,101608.20
2022-10-11T18:39:06.418Z,101613.40
2022-10-11T18:41:35.735Z,101609.80
2022-10-11T18:44:08.651Z,101602.60
2022-10-11T18:46:36.615Z,101603.40
2022-10-11T18:49:04.638Z,101605.20
2022-10-11T18:51:37.219Z,101609.00
2022-10-11T18:54:07.295Z,101610.20
2022-10-11T18:56:37.186Z,101606.20
2022-10-11T18:59:07.565Z,101607.00
2022-10-11T19:01:42.549Z,101611.80
2022-10-11T19:04:15.824Z,101617.60
2022-10-11T19:06:47.799Z,101613.40
2022-10-11T19:09:23.197Z,101616.60
2022-10-11T19:11:54.518Z,101611.60
2022-10-11T19:14:26.027Z,101611.00
2022-10-11T19:16:54.844Z,101611.00
2022-10-11T19:19:27.330Z,101603.60
2022-10-11T19:21:55.668Z,101611.40
2022-10-11T19:24:28.338Z,101602.80
2022-10-11T19:27:02.366Z,101602.20
2022-10-11T19:29:32.315Z,101600.80
2022-10-11T19:32:03.842Z,101598.60
2022-10-11T19:34:32.681Z,101596.40
2022-10-11T19:37:03.091Z,101599.80
2022-10-11T19:39:31.516Z,101602.40
2022-10-11T19:42:00.321Z,101602.80
2022-10-11T19:44:28.870Z,101598.80
2022-10-11T19:46:57.525Z,101601.00
2022-10-11T19:49:27.178Z,101599.80
2022-10-11T19:51:55.579Z,101593.80
2022-10-11T19:54:24.591Z,101600.20
2022-10-11T19:56:52.658Z,101595.40
2022-10-11T19:59:20.341Z,101593.20
2022-10-11T20:01:52.313Z,101594.80
2022-10-11T20:04:50.605Z,101590.00
2022-10-11T20:07:10.368Z,101596.00
2022-10-11T20:09:38.142Z,101592.00
2022-10-11T20:12:06.421Z,101593.20
2022-10-11T20:14:34.011Z,101598.00
2022-10-11T20:17:01.665Z,101597.20
2022-10-11T20:19:31.207Z,101597.00
2022-10-11T20:22:00.598Z,101598.00
2022-10-11T20:24:32.943Z,101591.00
2022-10-11T20:27:04.439Z,101592.60
2022-10-11T20:29:32.347Z,101594.20
2022-10-11T20:32:00.059Z,101597.80
2022-10-11T20:34:28.044Z,101596.40
2022-10-11T20:36:56.271Z,101594.00
2022-10-11T20:39:23.998Z,101595.80
2022-10-11T20:41:51.589Z,101593.00
2022-10-11T20:44:19.270Z,101589.20
2022-10-11T20:46:46.861Z,101593.80
2022-10-11T20:49:14.737Z,101593.80
2022-10-11T20:51:42.736Z,101590.40
2022-10-11T20:54:11.468Z,101594.60
2022-10-11T20:56:40.074Z,101583.00
2022-10-11T20:59:07.918Z,101586.20
2022-10-11T21:01:39.760Z,101587.80
2022-10-11T21:04:16.525Z,101589.40
2022-10-11T21:06:44.283Z,101595.60
2022-10-11T21:09:15.459Z,101594.00
2022-10-11T21:11:45.228Z,101599.20
2022-10-11T21:14:13.279Z,101596.00
2022-10-11T21:16:40.983Z,101592.40
2022-10-11T21:19:15.083Z,101592.00
2022-10-11T21:21:48.363Z,101595.60
2022-10-11T21:24:18.853Z,101600.80
2022-10-11T21:26:46.655Z,101601.00
2022-10-11T21:29:14.862Z,101604.60
2022-10-11T21:31:42.432Z,101602.00
2022-10-11T21:34:10.078Z,101608.80
2022-10-11T21:36:37.929Z,101602.40
2022-10-11T21:39:05.675Z,101607.20
2022-10-11T21:41:34.076Z,101602.80
2022-10-11T21:44:02.235Z,101607.00
2022-10-11T21:49:19.977Z,101603.40
2022-10-11T21:51:48.374Z,101604.20
2022-10-11T21:54:16.392Z,101598.00
2022-10-11T21:56:44.038Z,101604.20
2022-10-11T21:59:12.590Z,101601.20
2022-10-11T22:01:41.931Z,101597.80
2022-10-11T22:04:11.113Z,101597.20
2022-10-11T22:06:39.444Z,101594.00
2022-10-11T22:09:08.581Z,101595.20
2022-10-11T22:11:36.486Z,101591.80
2022-10-11T22:14:04.581Z,101592.00
2022-10-11T22:16:34.796Z,101584.40
2022-10-11T22:19:03.020Z,101587.60
2022-10-11T22:21:30.927Z,101579.80
2022-10-11T22:23:58.557Z,101579.40
2022-10-11T22:26:30.788Z,101581.80
2022-10-11T22:29:00.145Z,101576.00
2022-10-11T22:31:30.032Z,101579.20
2022-10-11T22:34:00.813Z,101579.80
2022-10-11T22:36:33.779Z,101577.80
2022-10-11T22:39:02.729Z,101570.00
2022-10-11T22:41:30.280Z,101576.80
2022-10-11T22:43:58.108Z,101573.60
2022-10-11T22:46:25.771Z,101572.00
2022-10-11T22:48:53.486Z,101558.80
2022-10-11T22:51:21.073Z,101562.20
2022-10-11T22:53:49.265Z,101559.00
2022-10-11T22:56:16.913Z,101556.00
2022-10-11T22:58:44.549Z,101556.60
2022-10-11T23:01:16.231Z,101556.60
2022-10-11T23:03:48.340Z,101550.60
2022-10-11T23:06:17.250Z,101551.60
2022-10-11T23:08:44.855Z,101547.00
2022-10-11T23:11:12.595Z,101546.40
2022-10-11T23:13:40.389Z,101544.60
2022-10-11T23:16:11.473Z,101546.00
2022-10-11T23:18:39.685Z,101549.20
2022-10-11T23:21:08.132Z,101543.20
2022-10-11T23:23:36.359Z,101540.40
2022-10-11T23:26:13.123Z,101539.40
2022-10-11T23:28:42.539Z,101532.40
2022-10-11T23:31:16.942Z,101537.80
2022-10-11T23:33:46.620Z,101536.00
2022-10-11T23:36:21.496Z,101535.60
2022-10-11T23:38:55.103Z,101543.20
2022-10-11T23:41:27.472Z,101542.80
2022-10-11T23:43:56.406Z,101543.00
2022-10-11T23:46:24.551Z,101538.80
2022-10-11T23:48:52.167Z,101538.40
2022-10-11T23:51:20.034Z,101536.20
2022-10-11T23:53:47.706Z,101537.00
2022-10-11T23:56:15.574Z,101533.40
2022-10-11T23:58:43.409Z,101532.20
